Bilzen, Belgium
Current Conditions -  °F | °C
As of 10:55 AM on Friday 19 Dec 2014 (Local Time) from EHBK Reporting Station
Light Rain Light Rain  
Wind Chill: 11°   Ceiling: 1000
Heat Index: 11°   Visibility: 6mi
Dew Point:   Wind: 24mph
Humidity: 88%   Direction: 230°SW
Pressure: 29.85"   Gusts: NA
Location:  50.87°N, 5.52°E
Report Text: EHBK 190955Z AUTO 23021KT 200V270 9999 -RA FEW009 BKN010 BKN013BKN015CB 11/09 Q1011 TEMPO 4000 RADZ BKN009
Loading
Personal Weather Stations






























Interactive Weather Map New forecast layout! Learn more

10-Day Weather Forecast

Advertisements
Track Severe Weather on mobile